Time;durP1;ratioP1;P1;durP2;ratioP2;P2;SDS_P1;SDS_P2;PMS_P1;PMS_P2;Temp;Humidity;BMP_temperature;BMP_pressure;BME280_temperature;BME280_humidity;BME280_pressure;Samples;Min_cycle;Max_cycle;Signal;HPM_P1;HPM_P2
2022/12/12 00:01:37;;;;;;;11.67;11.03;;;21.50;46.30;;;;;;5013403;28;20445;-58
2022/12/12 00:04:04;;;;;;;12.67;11.97;;;21.50;46.20;;;;;;5014443;28;20468;-58
2022/12/12 00:06:31;;;;;;;10.97;10.50;;;21.50;46.20;;;;;;5013233;28;20980;-58
2022/12/12 00:08:58;;;;;;;12.00;11.40;;;21.50;46.20;;;;;;5013069;28;20442;-56
2022/12/12 00:11:26;;;;;;;12.43;11.63;;;21.50;46.20;;;;;;5013222;28;20468;-58
2022/12/12 00:13:55;;;;;;;12.17;11.53;;;21.50;46.20;;;;;;5014467;28;20442;-60
2022/12/12 00:16:23;;;;;;;13.00;11.90;;;21.50;46.20;;;;;;5032252;28;20810;-57
2022/12/12 00:18:50;;;;;;;12.03;11.33;;;21.50;46.20;;;;;;5032773;28;20456;-60
2022/12/12 00:21:20;;;;;;;11.70;11.10;;;21.50;46.20;;;;;;5032813;28;20451;-57
2022/12/12 00:23:47;;;;;;;11.67;11.17;;;21.50;46.20;;;;;;5032272;28;20449;-58
2022/12/12 00:26:19;;;;;;;11.10;10.60;;;21.50;46.20;;;;;;5012999;28;20492;-55
2022/12/12 00:28:46;;;;;;;12.50;11.80;;;21.50;46.20;;;;;;5012901;28;20446;-57
2022/12/12 00:31:15;;;;;;;11.63;11.03;;;21.50;46.20;;;;;;5012801;28;20481;-57
2022/12/12 00:33:43;;;;;;;12.30;11.60;;;21.50;46.20;;;;;;5012874;28;20485;-60
2022/12/12 00:36:11;;;;;;;11.63;11.03;;;21.50;46.10;;;;;;5012675;28;20472;-59
2022/12/12 00:38:38;;;;;;;11.17;10.67;;;21.50;46.10;;;;;;5012755;28;20450;-59
2022/12/12 00:41:05;;;;;;;11.50;11.00;;;21.50;46.10;;;;;;5012717;28;20784;-58
2022/12/12 00:43:32;;;;;;;10.90;10.30;;;21.50;46.10;;;;;;5012746;28;20448;-58
2022/12/12 00:45:59;;;;;;;12.50;11.80;;;21.50;46.10;;;;;;5012152;28;20484;-59
2022/12/12 00:48:28;;;;;;;11.90;11.20;;;21.50;46.70;;;;;;5012613;28;20798;-58
2022/12/12 00:50:56;;;;;;;11.47;10.87;;;21.50;46.10;;;;;;5012260;28;20504;-56
2022/12/12 00:53:23;;;;;;;11.97;11.27;;;21.50;46.10;;;;;;5012275;28;20529;-58
2022/12/12 00:55:55;;;;;;;11.43;10.83;;;21.50;46.10;;;;;;5012215;28;20465;-59
2022/12/12 00:58:22;;;;;;;11.93;11.23;;;21.50;46.10;;;;;;5012459;28;20442;-59
2022/12/12 01:00:49;;;;;;;11.13;10.63;;;21.50;46.10;;;;;;5012323;28;20446;-58
2022/12/12 01:03:15;;;;;;;11.70;11.00;;;21.50;46.00;;;;;;5012154;28;20477;-57
2022/12/12 01:05:44;;;;;;;11.37;10.77;;;21.50;46.00;;;;;;5012276;28;20466;-58
2022/12/12 01:08:11;;;;;;;11.07;10.57;;;21.50;46.00;;;;;;5012266;28;20441;-59
2022/12/12 01:10:38;;;;;;;11.40;10.80;;;21.50;46.00;;;;;;5012029;28;20493;-56
2022/12/12 01:13:05;;;;;;;10.73;10.23;;;21.50;46.00;;;;;;5011862;28;20452;-57
2022/12/12 01:15:32;;;;;;;11.33;10.83;;;21.50;46.00;;;;;;5012193;28;20462;-57
2022/12/12 01:17:58;;;;;;;10.67;10.13;;;21.50;46.00;;;;;;5011752;28;20446;-59
2022/12/12 01:20:27;;;;;;;10.60;10.10;;;21.50;46.50;;;;;;5011870;28;20438;-58
2022/12/12 01:22:55;;;;;;;11.50;10.90;;;21.50;46.00;;;;;;5011741;28;21025;-59
2022/12/12 01:25:22;;;;;;;12.17;11.50;;;21.50;46.00;;;;;;5012120;28;20454;-58
2022/12/12 01:27:49;;;;;;;11.60;11.00;;;21.50;46.00;;;;;;5011194;28;20449;-57
2022/12/12 01:30:18;;;;;;;10.93;10.43;;;21.50;46.00;;;;;;5011701;28;20485;-59
2022/12/12 01:32:45;;;;;;;11.30;10.70;;;21.50;46.00;;;;;;5011867;28;20813;-59
2022/12/12 01:35:12;;;;;;;11.67;11.07;;;21.50;46.00;;;;;;5011871;28;20453;-59
2022/12/12 01:37:41;;;;;;;10.97;10.47;;;21.50;46.00;;;;;;5011944;28;20441;-56
2022/12/12 01:40:14;;;;;;;11.73;11.23;;;21.50;46.00;;;;;;5011866;28;20538;-60
2022/12/12 01:42:41;;;;;;;11.03;10.53;;;21.50;46.00;;;;;;5011703;28;20534;-58
2022/12/12 01:45:29;;;;;;;11.20;10.60;;;21.50;46.60;;;;;;5011631;28;20525;-60
2022/12/12 01:47:56;;;;;;;11.87;11.27;;;21.50;46.00;;;;;;5012226;28;20820;-62
2022/12/12 01:50:23;;;;;;;11.10;10.50;;;21.50;46.00;;;;;;5011457;28;20509;-61
2022/12/12 01:52:50;;;;;;;10.67;10.13;;;21.50;46.10;;;;;;5011642;28;20441;-60
2022/12/12 01:55:22;;;;;;;10.13;9.73;;;21.50;46.10;;;;;;5011583;28;20452;-60
2022/12/12 01:57:53;;;;;;;11.33;10.70;;;21.50;46.10;;;;;;5011824;28;20536;-61
2022/12/12 02:00:20;;;;;;;11.20;10.67;;;21.50;46.00;;;;;;5011271;28;20446;-61
2022/12/12 02:02:48;;;;;;;11.93;11.33;;;21.50;46.00;;;;;;5011638;28;20449;-61
2022/12/12 02:05:18;;;;;;;12.07;11.57;;;21.50;46.00;;;;;;5011596;28;20450;-61
2022/12/12 02:07:45;;;;;;;12.50;11.80;;;21.50;45.90;;;;;;5011820;28;20450;-61
2022/12/12 02:10:12;;;;;;;10.67;10.13;;;21.50;46.00;;;;;;5011046;28;20478;-61
2022/12/12 02:12:41;;;;;;;11.30;10.67;;;21.50;45.90;;;;;;5011701;28;20442;-61
2022/12/12 02:15:09;;;;;;;11.03;10.53;;;21.50;45.90;;;;;;5011529;28;20442;-61
2022/12/12 02:17:51;;;;;;;11.67;11.07;;;21.50;45.90;;;;;;5011671;28;20450;-61
2022/12/12 02:20:40;;;;;;;11.17;10.50;;;21.50;45.90;;;;;;5011080;28;20967;-62
2022/12/12 02:24:02;;;;;;;11.60;11.10;;;21.50;46.00;;;;;;5011708;28;20442;-61
2022/12/12 02:27:12;;;;;;;12.30;11.60;;;21.50;45.90;;;;;;5011592;28;20462;-62
2022/12/12 02:30:17;;;;;;;11.17;10.67;;;21.50;45.90;;;;;;5010892;28;20467;-61
2022/12/12 02:33:10;;;;;;;11.30;10.70;;;21.50;45.90;;;;;;5011424;28;20528;-61
2022/12/12 02:35:51;;;;;;;11.03;10.53;;;21.50;45.90;;;;;;5011277;28;20558;-62
2022/12/12 02:38:26;;;;;;;10.80;10.30;;;21.50;45.90;;;;;;5011405;28;20448;-61
2022/12/12 02:41:02;;;;;;;11.30;10.77;;;21.50;45.90;;;;;;5014679;28;20442;-62
2022/12/12 02:43:37;;;;;;;11.30;10.60;;;21.50;45.90;;;;;;5015121;28;20449;-61
2022/12/12 02:46:09;;;;;;;11.47;10.77;;;21.50;45.90;;;;;;5015021;28;20469;-61
2022/12/12 02:48:44;;;;;;;11.30;10.80;;;21.50;45.90;;;;;;5015486;28;20445;-61
2022/12/12 02:51:14;;;;;;;11.27;10.67;;;21.50;45.90;;;;;;5015062;28;20473;-61
2022/12/12 02:53:41;;;;;;;12.17;11.63;;;21.50;45.90;;;;;;5017747;28;20449;-62
2022/12/12 02:56:29;;;;;;;10.57;10.03;;;21.50;46.50;;;;;;5039785;28;20461;-61
2022/12/12 02:58:56;;;;;;;11.80;11.20;;;21.50;45.90;;;;;;5039649;28;20450;-61
2022/12/12 03:01:31;;;;;;;11.10;10.60;;;21.50;45.90;;;;;;5039468;28;20434;-61
2022/12/12 03:10:02;;;;;;;11.33;10.83;;;21.50;45.80;;;;;;5028748;28;20441;-61
2022/12/12 03:12:35;;;;;;;11.33;10.73;;;21.50;45.80;;;;;;5014961;28;20446;-61
2022/12/12 03:15:07;;;;;;;11.10;10.50;;;21.50;45.90;;;;;;5014928;28;20458;-61
2022/12/12 03:17:41;;;;;;;10.20;9.80;;;21.50;45.90;;;;;;5014207;28;20446;-61
2022/12/12 03:20:15;;;;;;;11.23;10.73;;;21.40;45.80;;;;;;5014347;28;20528;-61
2022/12/12 03:22:49;;;;;;;11.27;10.77;;;21.50;45.90;;;;;;5014294;28;20975;-63
2022/12/12 03:25:21;;;;;;;10.60;10.20;;;21.40;45.80;;;;;;5014144;28;20541;-61
2022/12/12 03:27:53;;;;;;;10.93;10.53;;;21.50;45.80;;;;;;5014044;28;20450;-61
2022/12/12 03:30:21;;;;;;;11.03;10.43;;;21.50;45.80;;;;;;5013825;28;20488;-62
2022/12/12 03:32:53;;;;;;;10.80;10.30;;;21.50;45.80;;;;;;5014044;28;20446;-60
2022/12/12 03:35:26;;;;;;;11.17;10.63;;;21.50;45.70;;;;;;5013933;28;20452;-61
2022/12/12 03:37:57;;;;;;;11.60;11.10;;;21.50;45.70;;;;;;5013704;28;20825;-62
2022/12/12 03:40:29;;;;;;;11.43;10.93;;;21.50;45.70;;;;;;5013718;28;20521;-62
2022/12/12 03:43:01;;;;;;;11.50;11.00;;;21.50;45.70;;;;;;5013735;28;20446;-62
2022/12/12 03:45:34;;;;;;;11.27;10.77;;;21.50;45.70;;;;;;5018469;28;20449;-62
2022/12/12 03:48:07;;;;;;;10.90;10.40;;;21.40;45.70;;;;;;5033925;28;20455;-62
2022/12/12 03:50:41;;;;;;;11.67;11.10;;;21.50;45.80;;;;;;5032349;28;20671;-61
2022/12/12 03:53:11;;;;;;;11.23;10.70;;;21.40;45.70;;;;;;5032086;28;20457;-61
2022/12/12 03:55:44;;;;;;;11.57;11.07;;;21.40;45.70;;;;;;5018691;28;20461;-62
2022/12/12 03:58:18;;;;;;;11.47;10.90;;;21.40;45.70;;;;;;5033464;28;20535;-61
2022/12/12 04:00:49;;;;;;;11.40;10.90;;;21.50;45.80;;;;;;5033072;28;20826;-61
2022/12/12 04:03:23;;;;;;;11.93;11.30;;;21.50;45.70;;;;;;5031554;28;20449;-61
2022/12/12 04:14:53;;;;;;;10.70;10.30;;;21.50;45.70;;;;;;5004242;28;20513;-62
2022/12/12 04:17:29;;;;;;;9.97;9.63;;;21.60;45.80;;;;;;5013165;28;20469;-62
2022/12/12 04:28:40;;;;;;;10.93;10.53;;;21.60;45.60;;;;;;5032965;28;20775;-63
2022/12/12 04:31:11;;;;;;;12.50;11.90;;;21.70;45.70;;;;;;5032831;28;20480;-61
2022/12/12 04:33:43;;;;;;;11.57;11.07;;;21.60;45.60;;;;;;5015031;28;20452;-61
2022/12/12 04:36:14;;;;;;;11.30;10.80;;;21.70;45.60;;;;;;5012817;28;20474;-60
2022/12/12 04:38:46;;;;;;;11.30;10.80;;;21.70;45.60;;;;;;5012896;28;20550;-61
2022/12/12 04:41:15;;;;;;;12.17;11.63;;;21.70;45.60;;;;;;5012825;28;20438;-61
2022/12/12 04:43:46;;;;;;;11.00;10.50;;;21.70;45.50;;;;;;5013780;28;20987;-61
2022/12/12 04:46:16;;;;;;;11.07;10.67;;;21.70;45.50;;;;;;5012985;28;20536;-62
2022/12/12 04:48:46;;;;;;;11.67;11.20;;;21.70;45.40;;;;;;5012937;28;20446;-61
2022/12/12 04:51:16;;;;;;;11.90;11.40;;;21.80;45.50;;;;;;5012570;28;20481;-60
2022/12/12 04:53:49;;;;;;;11.33;10.83;;;21.70;45.40;;;;;;5029717;28;20449;-61
2022/12/12 04:56:23;;;;;;;11.83;11.23;;;21.70;45.30;;;;;;5032200;28;20802;-62
2022/12/12 04:58:50;;;;;;;11.93;11.43;;;21.80;45.40;;;;;;5032259;28;20445;-61
2022/12/12 05:01:22;;;;;;;11.90;11.20;;;21.80;45.40;;;;;;5032004;28;21040;-61
2022/12/12 05:03:53;;;;;;;11.40;10.90;;;21.80;45.40;;;;;;5014076;28;20450;-61
2022/12/12 05:06:26;;;;;;;10.97;10.47;;;21.80;45.40;;;;;;5012286;28;20462;-60
2022/12/12 05:08:56;;;;;;;12.17;11.50;;;21.80;45.40;;;;;;5012242;28;20452;-61
2022/12/12 05:11:24;;;;;;;11.67;11.17;;;21.80;45.30;;;;;;5012515;28;20478;-60
2022/12/12 05:13:50;;;;;;;11.70;11.10;;;21.80;45.30;;;;;;5016610;28;20442;-61
2022/12/12 05:16:22;;;;;;;12.03;11.33;;;21.80;45.30;;;;;;5012136;28;20462;-61
2022/12/12 05:18:49;;;;;;;12.20;11.70;;;21.80;45.30;;;;;;5025216;28;20535;-61
2022/12/12 05:21:16;;;;;;;11.63;11.13;;;21.80;45.30;;;;;;5031778;28;20813;-53
2022/12/12 05:23:43;;;;;;;11.83;11.13;;;21.80;46.40;;;;;;5014994;28;20822;-59
2022/12/12 05:26:19;;;;;;;11.30;10.80;;;21.80;46.10;;;;;;5011916;28;20497;-60
2022/12/12 05:28:46;;;;;;;12.17;11.47;;;21.70;45.70;;;;;;5011847;28;20464;-60
2022/12/12 05:31:13;;;;;;;12.20;11.60;;;21.60;45.90;;;;;;5011915;28;20492;-59
2022/12/12 05:33:39;;;;;;;11.97;11.47;;;21.50;46.20;;;;;;5027821;28;20471;-60
2022/12/12 05:36:07;;;;;;;11.50;11.00;;;21.50;46.50;;;;;;5031509;28;20464;-59
2022/12/12 05:38:34;;;;;;;11.23;10.73;;;21.40;46.70;;;;;;5031540;28;20447;-60
2022/12/12 05:41:01;;;;;;;10.90;10.50;;;21.40;46.70;;;;;;5031497;28;20551;-60
2022/12/12 05:43:29;;;;;;;10.80;10.30;;;21.40;46.80;;;;;;5018416;28;20446;-59
2022/12/12 05:45:56;;;;;;;11.27;10.67;;;21.30;46.80;;;;;;5011560;28;20482;-58
2022/12/12 05:48:23;;;;;;;11.47;10.90;;;21.30;46.80;;;;;;5011823;28;20446;-60
2022/12/12 05:50:50;;;;;;;11.90;11.30;;;21.30;47.40;;;;;;5017074;28;20477;-58
2022/12/12 05:53:17;;;;;;;11.00;10.60;;;21.20;46.90;;;;;;5031516;28;20825;-60
2022/12/12 05:55:43;;;;;;;11.90;11.30;;;21.20;46.90;;;;;;5031309;28;20465;-59
2022/12/12 05:58:11;;;;;;;11.50;10.90;;;21.20;46.90;;;;;;5031354;28;21047;-58
2022/12/12 06:00:39;;;;;;;11.13;10.63;;;21.30;46.80;;;;;;5027118;28;20445;-59
2022/12/12 06:03:06;;;;;;;12.30;11.80;;;21.30;46.80;;;;;;5011836;28;20456;-57
2022/12/12 06:05:33;;;;;;;15.33;14.23;;;21.40;46.90;;;;;;5011538;28;20462;-59
2022/12/12 06:08:00;;;;;;;14.10;13.10;;;21.40;47.10;;;;;;5011769;28;20446;-59
2022/12/12 06:10:26;;;;;;;19.77;14.50;;;21.50;48.60;;;;;;5013302;28;20446;-57
2022/12/12 06:12:53;;;;;;;14.57;13.57;;;21.50;50.80;;;;;;5029291;28;20487;-59
2022/12/12 06:15:20;;;;;;;14.30;13.10;;;21.60;50.70;;;;;;5024921;28;20453;-62
2022/12/12 06:17:50;;;;;;;14.37;13.13;;;21.70;50.90;;;;;;5033120;28;20449;-59
2022/12/12 06:20:17;;;;;;;14.33;13.10;;;21.80;50.40;;;;;;5033892;28;20476;-56
2022/12/12 06:22:44;;;;;;;13.47;12.50;;;21.90;49.90;;;;;;5035134;28;20441;-59
2022/12/12 06:25:11;;;;;;;14.53;13.40;;;21.90;49.30;;;;;;5035004;28;20822;-61
2022/12/12 06:27:38;;;;;;;14.10;12.90;;;22.00;48.90;;;;;;5035072;28;20527;-60
2022/12/12 06:30:07;;;;;;;13.17;12.23;;;22.00;48.50;;;;;;5034982;28;20530;-61
2022/12/12 06:32:33;;;;;;;13.80;12.63;;;22.00;48.20;;;;;;5034815;28;20487;-61
2022/12/12 06:35:02;;;;;;;13.90;12.90;;;22.00;48.50;;;;;;5034942;28;20451;-60
2022/12/12 06:37:29;;;;;;;12.80;12.00;;;22.00;47.70;;;;;;5034862;28;20468;-61
2022/12/12 06:39:55;;;;;;;13.30;12.23;;;22.10;47.60;;;;;;5034714;28;20440;-59
2022/12/12 06:42:22;;;;;;;13.87;12.80;;;22.00;47.30;;;;;;5034856;28;20453;-61
2022/12/12 06:44:49;;;;;;;13.50;12.67;;;22.00;47.20;;;;;;5034747;28;20444;-59
2022/12/12 06:47:16;;;;;;;12.07;11.27;;;22.00;47.00;;;;;;5034802;28;20867;-58
2022/12/12 06:49:43;;;;;;;12.40;11.60;;;22.00;46.90;;;;;;5034518;28;20467;-59
2022/12/12 06:52:11;;;;;;;12.70;11.90;;;22.00;46.80;;;;;;5034454;28;20483;-60
2022/12/12 06:54:38;;;;;;;12.30;11.40;;;22.00;46.70;;;;;;5034539;28;20532;-61
2022/12/12 06:57:05;;;;;;;12.63;11.93;;;22.00;46.60;;;;;;5034491;28;20468;-61
2022/12/12 06:59:31;;;;;;;13.00;12.20;;;21.90;46.50;;;;;;5034247;28;20447;-59
2022/12/12 07:01:59;;;;;;;13.03;12.00;;;21.90;46.40;;;;;;5034405;28;20443;-60
2022/12/12 07:04:26;;;;;;;12.43;11.40;;;21.90;46.30;;;;;;5034374;28;20847;-60
2022/12/12 07:06:53;;;;;;;12.97;12.03;;;21.90;46.30;;;;;;5034427;28;21055;-60
2022/12/12 07:09:21;;;;;;;12.30;11.40;;;21.90;46.20;;;;;;5034152;28;20481;-60
2022/12/12 07:11:48;;;;;;;12.37;11.23;;;21.90;46.10;;;;;;5034083;28;20484;-60
2022/12/12 07:14:15;;;;;;;12.13;11.53;;;21.80;46.00;;;;;;5034279;28;20451;-61
2022/12/12 07:16:42;;;;;;;12.67;12.00;;;21.90;46.00;;;;;;5034126;28;20551;-59
2022/12/12 07:19:09;;;;;;;11.40;10.80;;;21.90;45.90;;;;;;5034086;28;20453;-61
2022/12/12 07:21:36;;;;;;;11.43;10.83;;;21.80;46.30;;;;;;5034012;28;20805;-59
2022/12/12 07:24:03;;;;;;;12.97;11.97;;;21.80;45.70;;;;;;5033985;28;20451;-60
2022/12/12 07:26:31;;;;;;;12.30;11.43;;;21.80;45.60;;;;;;5032604;28;20465;-59
2022/12/12 07:28:58;;;;;;;12.33;11.60;;;21.80;45.60;;;;;;5033695;28;20447;-58
2022/12/12 07:31:25;;;;;;;11.70;10.93;;;21.70;45.50;;;;;;5033710;28;20488;-60
2022/12/12 07:33:53;;;;;;;12.53;11.50;;;21.70;45.60;;;;;;5033850;28;20819;-58
2022/12/12 07:36:21;;;;;;;12.40;11.80;;;21.60;45.50;;;;;;5033920;28;20527;-59
2022/12/12 07:38:48;;;;;;;11.33;10.83;;;21.60;45.50;;;;;;5033639;28;20447;-59
2022/12/12 07:41:17;;;;;;;13.63;12.83;;;21.60;45.40;;;;;;5033725;28;20647;-59
2022/12/12 07:43:46;;;;;;;12.30;11.70;;;21.50;45.30;;;;;;5033544;28;20456;-59
2022/12/12 07:46:16;;;;;;;11.93;11.33;;;21.50;45.30;;;;;;5033571;28;20921;-59
2022/12/12 07:48:43;;;;;;;11.07;10.47;;;21.50;45.30;;;;;;5034030;28;21023;-57
2022/12/12 07:51:10;;;;;;;12.37;11.70;;;21.50;45.30;;;;;;5033352;28;20453;-60
2022/12/12 07:53:37;;;;;;;11.60;11.03;;;21.40;45.30;;;;;;5033628;28;20441;-59
2022/12/12 07:56:06;;;;;;;12.00;11.40;;;21.40;45.30;;;;;;5033454;28;20465;-59
2022/12/12 07:58:33;;;;;;;11.97;11.43;;;21.40;45.30;;;;;;5033259;28;20814;-56
2022/12/12 08:01:01;;;;;;;11.43;10.90;;;21.40;45.30;;;;;;5033060;28;20540;-59
2022/12/12 08:03:28;;;;;;;11.63;10.93;;;21.30;45.20;;;;;;5033331;28;20883;-59
2022/12/12 08:05:55;;;;;;;12.00;11.37;;;21.30;45.20;;;;;;5033414;28;20969;-60
2022/12/12 08:08:21;;;;;;;11.90;11.40;;;21.30;45.20;;;;;;5033330;28;20444;-58
2022/12/12 08:10:48;;;;;;;11.60;11.10;;;21.20;45.20;;;;;;5032895;28;20451;-59
2022/12/12 08:13:15;;;;;;;11.80;11.27;;;21.20;45.10;;;;;;5033043;28;20503;-57
2022/12/12 08:15:43;;;;;;;12.17;11.57;;;21.20;45.20;;;;;;5032937;28;20819;-59
2022/12/12 08:18:11;;;;;;;12.10;11.50;;;21.10;45.10;;;;;;5032962;28;20506;-54
2022/12/12 08:20:39;;;;;;;12.77;12.17;;;21.10;45.10;;;;;;5032827;28;20988;-59
2022/12/12 08:23:06;;;;;;;11.60;11.10;;;21.00;45.00;;;;;;5032885;28;20441;-57
2022/12/12 08:25:35;;;;;;;11.77;11.23;;;21.00;45.00;;;;;;5032715;28;20469;-58
2022/12/12 08:28:02;;;;;;;11.43;10.93;;;21.00;45.10;;;;;;5032813;28;20445;-55
2022/12/12 08:30:28;;;;;;;11.40;11.00;;;20.90;45.00;;;;;;5032521;28;20448;-58
2022/12/12 08:32:55;;;;;;;12.03;11.30;;;20.90;45.00;;;;;;5032815;28;21068;-59
2022/12/12 08:35:24;;;;;;;10.70;10.30;;;20.90;45.00;;;;;;5032682;28;20449;-59
2022/12/12 08:37:51;;;;;;;12.07;11.53;;;20.90;45.00;;;;;;5032155;28;20445;-57
2022/12/12 08:40:17;;;;;;;10.90;10.50;;;20.80;45.00;;;;;;5032395;28;20447;-61
2022/12/12 08:42:44;;;;;;;10.73;10.27;;;20.80;45.00;;;;;;5032549;28;20460;-59
2022/12/12 08:45:12;;;;;;;12.20;11.60;;;20.80;45.00;;;;;;5032187;28;20449;-57
2022/12/12 08:47:38;;;;;;;11.17;10.77;;;20.80;45.00;;;;;;5032569;28;20528;-59
2022/12/12 08:50:06;;;;;;;11.17;10.77;;;20.70;44.90;;;;;;5032287;28;20881;-61
2022/12/12 08:52:35;;;;;;;11.37;10.93;;;20.70;44.90;;;;;;5032332;28;20992;-58
2022/12/12 08:55:01;;;;;;;11.13;10.63;;;20.70;44.90;;;;;;5032429;28;20441;-58
2022/12/12 08:57:28;;;;;;;11.07;10.57;;;20.70;45.00;;;;;;5032071;28;20980;-59
2022/12/12 08:59:55;;;;;;;11.17;10.73;;;20.70;45.00;;;;;;5031990;28;20448;-59
2022/12/12 09:02:22;;;;;;;10.80;10.30;;;20.70;45.00;;;;;;5032315;28;20441;-61
2022/12/12 09:04:49;;;;;;;10.53;10.13;;;20.70;45.00;;;;;;5032072;28;20441;-62
2022/12/12 09:07:15;;;;;;;10.17;9.77;;;20.70;44.90;;;;;;5032028;28;20573;-58
2022/12/12 09:09:44;;;;;;;10.73;10.20;;;20.70;45.00;;;;;;5031902;28;20445;-58
2022/12/12 09:12:10;;;;;;;10.37;9.97;;;20.70;45.00;;;;;;5031877;28;20487;-59
2022/12/12 09:14:37;;;;;;;9.87;9.47;;;20.70;44.90;;;;;;5032022;28;21005;-58
2022/12/12 09:17:04;;;;;;;10.13;9.73;;;20.70;44.90;;;;;;5031954;28;20464;-60
2022/12/12 09:19:31;;;;;;;10.90;10.47;;;20.70;44.90;;;;;;5031819;28;20447;-60
2022/12/12 09:21:58;;;;;;;10.07;9.67;;;20.60;44.80;;;;;;5031880;28;20819;-58
2022/12/12 09:24:25;;;;;;;10.03;9.63;;;20.60;44.80;;;;;;5031922;28;20451;-58
2022/12/12 09:26:53;;;;;;;10.90;10.30;;;20.60;44.80;;;;;;5031739;28;20788;-58
2022/12/12 09:29:20;;;;;;;10.40;10.00;;;20.60;44.90;;;;;;5031649;28;20499;-56
2022/12/12 09:31:47;;;;;;;9.73;9.33;;;20.60;44.80;;;;;;5031616;28;20436;-59
2022/12/12 09:34:14;;;;;;;10.23;9.83;;;20.50;44.80;;;;;;5031757;28;20845;-60
2022/12/12 09:36:40;;;;;;;9.77;9.43;;;20.50;44.80;;;;;;5031669;28;20461;-58
2022/12/12 09:39:07;;;;;;;11.30;10.70;;;20.50;44.80;;;;;;5031396;28;20449;-59
2022/12/12 09:41:34;;;;;;;10.30;9.90;;;20.50;44.80;;;;;;5031514;28;20483;-58
2022/12/12 09:44:06;;;;;;;10.40;9.90;;;20.50;44.90;;;;;;5031735;28;20441;-57
2022/12/12 09:46:36;;;;;;;10.00;9.60;;;20.40;44.80;;;;;;5031608;28;20473;-59
2022/12/12 09:49:12;;;;;;;10.17;9.77;;;20.40;44.80;;;;;;5030804;28;20449;-61
2022/12/12 09:51:39;;;;;;;9.77;9.37;;;20.40;44.80;;;;;;5031319;28;20528;-60
2022/12/12 09:54:06;;;;;;;10.33;9.83;;;20.40;44.90;;;;;;5031428;28;20440;-58
2022/12/12 09:56:37;;;;;;;9.77;9.40;;;20.30;44.80;;;;;;5031340;28;20857;-58
2022/12/12 09:59:12;;;;;;;10.50;10.10;;;20.30;44.70;;;;;;5031599;28;20452;-61
2022/12/12 10:01:45;;;;;;;10.03;9.73;;;20.30;44.80;;;;;;5031708;28;20451;-60
2022/12/12 10:04:24;;;;;;;9.90;9.57;;;20.30;44.80;;;;;;5031640;28;20832;-59
2022/12/12 10:07:00;;;;;;;10.10;9.70;;;20.30;44.80;;;;;;5031310;28;20916;-58
2022/12/12 10:09:47;;;;;;;10.40;10.00;;;20.30;44.80;;;;;;5031319;28;20452;-58
2022/12/12 10:12:16;;;;;;;10.40;10.00;;;20.20;44.80;;;;;;5031345;28;20480;-60
2022/12/12 10:14:48;;;;;;;9.57;9.27;;;20.20;44.80;;;;;;5031291;28;20531;-62
2022/12/12 10:17:17;;;;;;;9.20;8.90;;;20.20;44.80;;;;;;5031300;28;20461;-62
2022/12/12 10:19:50;;;;;;;10.07;9.60;;;20.20;44.80;;;;;;5031239;28;20451;-62
2022/12/12 10:22:25;;;;;;;10.10;9.70;;;20.20;44.80;;;;;;5031421;28;20810;-58
2022/12/12 10:24:55;;;;;;;9.37;8.93;;;20.10;44.70;;;;;;5031240;28;20441;-59
2022/12/12 10:27:23;;;;;;;9.40;9.10;;;20.10;44.70;;;;;;5031317;28;20991;-59
2022/12/12 10:29:52;;;;;;;10.50;10.07;;;20.10;44.70;;;;;;5030984;28;20874;-55
2022/12/12 10:32:28;;;;;;;9.77;9.40;;;20.10;44.70;;;;;;5031107;28;20496;-60
2022/12/12 10:35:08;;;;;;;10.17;9.77;;;20.10;44.70;;;;;;5031108;28;20440;-60
2022/12/12 10:37:47;;;;;;;10.27;9.93;;;20.20;44.80;;;;;;5031239;28;20444;-58
2022/12/12 10:40:28;;;;;;;10.50;10.20;;;20.20;44.80;;;;;;5030829;28;20536;-59
2022/12/12 10:43:00;;;;;;;10.93;10.53;;;20.20;44.80;;;;;;5031213;28;20439;-60
2022/12/12 10:45:42;;;;;;;10.03;9.63;;;20.30;44.90;;;;;;5030985;28;20455;-60
2022/12/12 10:48:08;;;;;;;9.63;9.33;;;20.30;44.80;;;;;;5030940;28;20445;-60
2022/12/12 10:50:39;;;;;;;10.20;9.90;;;20.30;44.80;;;;;;5030759;28;20532;-57
2022/12/12 10:53:09;;;;;;;10.60;10.20;;;20.30;44.70;;;;;;5030876;28;21113;-60
2022/12/12 10:55:42;;;;;;;10.60;10.20;;;20.30;44.70;;;;;;5030964;28;20465;-60
2022/12/12 10:58:09;;;;;;;11.13;10.67;;;20.30;44.70;;;;;;5031014;28;20449;-60
2022/12/12 11:00:39;;;;;;;9.90;9.60;;;20.40;44.80;;;;;;5032509;28;20528;-60
2022/12/12 11:03:23;;;;;;;10.03;9.63;;;20.30;44.70;;;;;;5034438;28;21003;-59
2022/12/12 11:05:50;;;;;;;10.40;9.90;;;20.40;44.70;;;;;;5034332;28;20469;-60
2022/12/12 11:08:25;;;;;;;10.60;10.20;;;20.30;44.60;;;;;;5034317;28;21015;-59
2022/12/12 11:11:02;;;;;;;10.43;10.03;;;20.30;44.60;;;;;;5034164;28;20444;-59
2022/12/12 11:13:29;;;;;;;10.20;9.90;;;20.30;44.60;;;;;;5034270;28;20519;-59
2022/12/12 11:16:00;;;;;;;9.70;9.50;;;20.30;44.50;;;;;;5034342;28;20465;-60
2022/12/12 11:18:28;;;;;;;10.27;9.87;;;20.30;44.60;;;;;;5034163;28;20536;-58
2022/12/12 11:21:03;;;;;;;10.27;9.83;;;20.30;44.50;;;;;;5033956;28;20483;-61
2022/12/12 11:23:31;;;;;;;10.63;10.13;;;20.30;44.50;;;;;;5034073;28;20876;-61
2022/12/12 11:25:59;;;;;;;10.50;10.10;;;20.30;44.50;;;;;;5033913;28;20457;-60
2022/12/12 11:28:32;;;;;;;10.50;10.10;;;20.30;44.50;;;;;;5033993;28;20812;-58
2022/12/12 11:31:05;;;;;;;10.27;9.87;;;20.30;44.50;;;;;;5033772;28;20456;-60
2022/12/12 11:33:35;;;;;;;10.33;9.93;;;20.30;44.40;;;;;;5033881;28;21076;-60
2022/12/12 11:36:05;;;;;;;11.00;10.53;;;20.30;44.40;;;;;;5033810;28;20550;-60
2022/12/12 11:38:38;;;;;;;10.37;9.97;;;20.30;44.40;;;;;;5033746;28;20476;-59
2022/12/12 11:41:07;;;;;;;10.90;10.23;;;20.20;44.40;;;;;;5033501;28;20445;-60
2022/12/12 11:43:36;;;;;;;11.00;10.60;;;20.20;44.30;;;;;;5033622;28;20520;-60
2022/12/12 11:46:15;;;;;;;10.07;9.77;;;20.20;44.40;;;;;;5033593;28;20477;-60
2022/12/12 11:48:44;;;;;;;11.27;10.77;;;20.20;44.30;;;;;;5033583;28;20531;-60
2022/12/12 11:51:11;;;;;;;10.60;10.10;;;20.20;44.30;;;;;;5033665;28;20537;-60
2022/12/12 11:53:40;;;;;;;10.87;10.37;;;20.20;44.30;;;;;;5033430;28;20884;-60
2022/12/12 11:56:21;;;;;;;10.90;10.60;;;20.10;44.30;;;;;;5033420;28;20469;-61
2022/12/12 11:58:55;;;;;;;10.20;9.90;;;20.10;44.30;;;;;;5033268;28;20528;-59
2022/12/12 12:01:32;;;;;;;11.03;10.63;;;20.10;44.30;;;;;;5033277;28;20536;-58
2022/12/12 12:04:24;;;;;;;10.93;10.53;;;20.10;44.30;;;;;;5033436;28;20441;-58
2022/12/12 12:07:07;;;;;;;11.57;11.17;;;20.10;44.30;;;;;;5033386;28;20471;-58
2022/12/12 12:09:45;;;;;;;10.90;10.50;;;20.10;44.30;;;;;;5033042;28;20547;-60
2022/12/12 12:12:17;;;;;;;11.20;10.70;;;20.00;44.30;;;;;;5032361;28;20452;-58
2022/12/12 12:15:01;;;;;;;10.30;10.00;;;20.10;44.40;;;;;;5033096;28;20441;-60
2022/12/12 12:17:47;;;;;;;10.27;9.97;;;20.00;44.30;;;;;;5032970;28;20468;-60
2022/12/12 12:20:22;;;;;;;10.37;10.00;;;20.00;44.30;;;;;;5032969;28;20445;-60
2022/12/12 12:23:00;;;;;;;10.50;10.13;;;20.00;44.30;;;;;;5032940;28;20460;-59
2022/12/12 12:25:39;;;;;;;10.50;10.20;;;20.00;44.30;;;;;;5032819;28;20936;-61
2022/12/12 12:28:43;;;;;;;10.70;10.30;;;20.00;44.30;;;;;;5032799;28;20455;-61
2022/12/12 12:31:14;;;;;;;11.00;10.50;;;20.00;44.30;;;;;;5032582;28;20890;-58
2022/12/12 12:33:53;;;;;;;10.40;10.10;;;20.10;44.40;;;;;;5032658;28;20484;-60
2022/12/12 12:36:23;;;;;;;10.33;10.03;;;20.10;44.50;;;;;;5032837;28;20464;-60
2022/12/12 12:38:56;;;;;;;10.90;10.50;;;20.10;44.50;;;;;;5032744;28;20441;-60
2022/12/12 12:41:51;;;;;;;10.10;9.80;;;20.20;44.50;;;;;;5032655;28;20451;-59
2022/12/12 12:44:36;;;;;;;11.17;10.77;;;20.20;44.50;;;;;;5032612;28;20886;-60
2022/12/12 12:47:11;;;;;;;10.90;10.60;;;20.20;44.50;;;;;;5032733;28;20479;-56
2022/12/12 12:49:45;;;;;;;10.10;9.80;;;20.30;44.50;;;;;;5032554;28;20445;-61
2022/12/12 12:52:16;;;;;;;10.57;10.10;;;20.30;44.40;;;;;;5032430;28;20445;-59
2022/12/12 12:54:47;;;;;;;10.43;10.13;;;20.30;44.40;;;;;;5032490;28;21099;-60
2022/12/12 12:57:18;;;;;;;10.30;9.90;;;20.30;44.40;;;;;;5032140;28;21003;-61
2022/12/12 12:59:49;;;;;;;11.00;10.70;;;20.30;44.30;;;;;;5031979;28;20448;-60
2022/12/12 13:02:23;;;;;;;10.73;10.43;;;20.40;44.40;;;;;;5032308;28;20567;-59
2022/12/12 13:05:02;;;;;;;10.30;9.90;;;20.40;44.40;;;;;;5032273;28;20902;-61
2022/12/12 13:07:36;;;;;;;9.93;9.50;;;20.40;44.40;;;;;;5032041;28;20893;-61
2022/12/12 13:10:08;;;;;;;9.53;9.23;;;20.40;44.40;;;;;;5032083;28;20562;-59